sensor_id;sensor_type;location;lat;lon;timestamp;P1;durP1;ratioP1;P2;durP2;ratioP2
2992;SDS011;1506;48.932;9.478;2022-12-07T00:01:22;11.93;;;9.50;;
2992;SDS011;1506;48.932;9.478;2022-12-07T00:03:58;12.90;;;9.60;;
2992;SDS011;1506;48.932;9.478;2022-12-07T00:06:34;9.80;;;8.80;;
2992;SDS011;1506;48.932;9.478;2022-12-07T00:09:04;12.73;;;9.63;;
2992;SDS011;1506;48.932;9.478;2022-12-07T00:11:33;22.13;;;10.63;;
2992;SDS011;1506;48.932;9.478;2022-12-07T00:14:01;15.33;;;10.80;;
2992;SDS011;1506;48.932;9.478;2022-12-07T00:16:32;15.50;;;10.20;;
2992;SDS011;1506;48.932;9.478;2022-12-07T00:19:00;11.47;;;9.97;;
2992;SDS011;1506;48.932;9.478;2022-12-07T00:21:29;11.33;;;8.70;;
2992;SDS011;1506;48.932;9.478;2022-12-07T00:23:59;11.67;;;8.67;;
2992;SDS011;1506;48.932;9.478;2022-12-07T00:26:28;17.97;;;9.43;;
2992;SDS011;1506;48.932;9.478;2022-12-07T00:29:00;12.33;;;10.87;;
2992;SDS011;1506;48.932;9.478;2022-12-07T00:31:35;12.93;;;9.33;;
2992;SDS011;1506;48.932;9.478;2022-12-07T00:34:11;14.23;;;10.27;;
2992;SDS011;1506;48.932;9.478;2022-12-07T00:36:44;20.30;;;9.47;;
2992;SDS011;1506;48.932;9.478;2022-12-07T00:39:12;11.80;;;10.60;;
2992;SDS011;1506;48.932;9.478;2022-12-07T00:41:39;12.27;;;9.70;;
2992;SDS011;1506;48.932;9.478;2022-12-07T00:44:06;11.20;;;10.07;;
2992;SDS011;1506;48.932;9.478;2022-12-07T00:46:33;10.90;;;9.27;;
2992;SDS011;1506;48.932;9.478;2022-12-07T00:49:00;14.47;;;11.17;;
2992;SDS011;1506;48.932;9.478;2022-12-07T00:51:27;18.30;;;10.73;;
2992;SDS011;1506;48.932;9.478;2022-12-07T00:53:54;11.90;;;9.70;;
2992;SDS011;1506;48.932;9.478;2022-12-07T00:56:26;12.83;;;9.50;;
2992;SDS011;1506;48.932;9.478;2022-12-07T00:58:55;16.80;;;11.83;;
2992;SDS011;1506;48.932;9.478;2022-12-07T01:01:24;14.50;;;9.70;;
2992;SDS011;1506;48.932;9.478;2022-12-07T01:03:53;15.73;;;11.10;;
2992;SDS011;1506;48.932;9.478;2022-12-07T01:06:21;13.20;;;10.17;;
2992;SDS011;1506;48.932;9.478;2022-12-07T01:08:49;15.40;;;11.60;;
2992;SDS011;1506;48.932;9.478;2022-12-07T01:11:18;16.47;;;10.80;;
2992;SDS011;1506;48.932;9.478;2022-12-07T01:13:52;24.33;;;10.67;;
2992;SDS011;1506;48.932;9.478;2022-12-07T01:16:22;13.67;;;11.23;;
2992;SDS011;1506;48.932;9.478;2022-12-07T01:18:52;15.43;;;10.90;;
2992;SDS011;1506;48.932;9.478;2022-12-07T01:21:22;14.23;;;11.30;;
2992;SDS011;1506;48.932;9.478;2022-12-07T01:23:50;13.60;;;10.63;;
2992;SDS011;1506;48.932;9.478;2022-12-07T01:26:20;17.23;;;10.80;;
2992;SDS011;1506;48.932;9.478;2022-12-07T01:28:49;12.73;;;9.67;;
2992;SDS011;1506;48.932;9.478;2022-12-07T01:31:18;19.37;;;13.27;;
2992;SDS011;1506;48.932;9.478;2022-12-07T01:33:48;18.60;;;11.03;;
2992;SDS011;1506;48.932;9.478;2022-12-07T01:36:21;16.00;;;11.33;;
2992;SDS011;1506;48.932;9.478;2022-12-07T01:38:57;12.33;;;10.47;;
2992;SDS011;1506;48.932;9.478;2022-12-07T01:41:27;16.40;;;10.43;;
2992;SDS011;1506;48.932;9.478;2022-12-07T01:44:17;13.17;;;9.90;;
2992;SDS011;1506;48.932;9.478;2022-12-07T01:46:53;15.27;;;10.30;;
2992;SDS011;1506;48.932;9.478;2022-12-07T01:54:58;15.77;;;10.20;;
2992;SDS011;1506;48.932;9.478;2022-12-07T01:57:28;17.70;;;12.00;;
2992;SDS011;1506;48.932;9.478;2022-12-07T01:59:57;14.70;;;11.50;;
2992;SDS011;1506;48.932;9.478;2022-12-07T02:02:39;18.10;;;10.57;;
2992;SDS011;1506;48.932;9.478;2022-12-07T02:05:24;15.33;;;9.50;;
2992;SDS011;1506;48.932;9.478;2022-12-07T02:07:53;20.73;;;11.97;;
2992;SDS011;1506;48.932;9.478;2022-12-07T02:10:29;15.33;;;11.20;;
2992;SDS011;1506;48.932;9.478;2022-12-07T02:13:08;15.53;;;11.07;;
2992;SDS011;1506;48.932;9.478;2022-12-07T02:21:53;16.63;;;11.00;;
2992;SDS011;1506;48.932;9.478;2022-12-07T02:30:05;17.33;;;11.93;;
2992;SDS011;1506;48.932;9.478;2022-12-07T02:40:36;24.80;;;12.47;;
2992;SDS011;1506;48.932;9.478;2022-12-07T02:43:25;21.03;;;11.00;;
2992;SDS011;1506;48.932;9.478;2022-12-07T02:45:55;22.67;;;12.70;;
2992;SDS011;1506;48.932;9.478;2022-12-07T02:48:26;15.77;;;10.20;;
2992;SDS011;1506;48.932;9.478;2022-12-07T02:50:54;19.23;;;13.17;;
2992;SDS011;1506;48.932;9.478;2022-12-07T02:53:28;20.37;;;11.30;;
2992;SDS011;1506;48.932;9.478;2022-12-07T02:56:03;16.27;;;12.13;;
2992;SDS011;1506;48.932;9.478;2022-12-07T03:01:46;24.10;;;12.40;;
2992;SDS011;1506;48.932;9.478;2022-12-07T03:06:56;20.10;;;11.73;;
2992;SDS011;1506;48.932;9.478;2022-12-07T03:09:36;20.90;;;11.57;;
2992;SDS011;1506;48.932;9.478;2022-12-07T03:12:12;16.77;;;11.23;;
2992;SDS011;1506;48.932;9.478;2022-12-07T03:14:50;24.93;;;12.60;;
2992;SDS011;1506;48.932;9.478;2022-12-07T03:17:32;26.07;;;11.17;;
2992;SDS011;1506;48.932;9.478;2022-12-07T03:20:03;25.70;;;12.70;;
2992;SDS011;1506;48.932;9.478;2022-12-07T03:22:35;26.33;;;11.57;;
2992;SDS011;1506;48.932;9.478;2022-12-07T03:25:06;14.07;;;10.53;;
2992;SDS011;1506;48.932;9.478;2022-12-07T03:27:41;19.83;;;10.20;;
2992;SDS011;1506;48.932;9.478;2022-12-07T03:30:13;22.30;;;11.30;;
2992;SDS011;1506;48.932;9.478;2022-12-07T03:32:59;16.10;;;11.33;;
2992;SDS011;1506;48.932;9.478;2022-12-07T03:35:45;16.40;;;11.37;;
2992;SDS011;1506;48.932;9.478;2022-12-07T03:38:31;25.30;;;12.70;;
2992;SDS011;1506;48.932;9.478;2022-12-07T03:41:06;18.30;;;11.03;;
2992;SDS011;1506;48.932;9.478;2022-12-07T03:43:37;21.47;;;11.73;;
2992;SDS011;1506;48.932;9.478;2022-12-07T03:54:35;24.67;;;12.43;;
2992;SDS011;1506;48.932;9.478;2022-12-07T03:57:06;17.17;;;10.60;;
2992;SDS011;1506;48.932;9.478;2022-12-07T03:59:35;19.47;;;13.13;;
2992;SDS011;1506;48.932;9.478;2022-12-07T04:02:05;16.30;;;9.53;;
2992;SDS011;1506;48.932;9.478;2022-12-07T04:04:33;15.50;;;9.40;;
2992;SDS011;1506;48.932;9.478;2022-12-07T04:07:01;21.00;;;11.77;;
2992;SDS011;1506;48.932;9.478;2022-12-07T04:09:29;18.00;;;11.10;;
2992;SDS011;1506;48.932;9.478;2022-12-07T04:11:56;21.57;;;11.37;;
2992;SDS011;1506;48.932;9.478;2022-12-07T04:14:23;23.60;;;12.50;;
2992;SDS011;1506;48.932;9.478;2022-12-07T04:16:51;22.67;;;12.40;;
2992;SDS011;1506;48.932;9.478;2022-12-07T04:19:23;24.90;;;13.10;;
2992;SDS011;1506;48.932;9.478;2022-12-07T04:21:56;30.97;;;13.47;;
2992;SDS011;1506;48.932;9.478;2022-12-07T04:24:24;27.33;;;12.80;;
2992;SDS011;1506;48.932;9.478;2022-12-07T04:26:52;27.93;;;14.60;;
2992;SDS011;1506;48.932;9.478;2022-12-07T04:29:20;19.53;;;12.00;;
2992;SDS011;1506;48.932;9.478;2022-12-07T04:31:47;30.07;;;14.40;;
2992;SDS011;1506;48.932;9.478;2022-12-07T04:34:16;30.03;;;12.73;;
2992;SDS011;1506;48.932;9.478;2022-12-07T04:36:44;20.37;;;11.33;;
2992;SDS011;1506;48.932;9.478;2022-12-07T04:41:53;17.33;;;11.13;;
2992;SDS011;1506;48.932;9.478;2022-12-07T04:44:21;21.27;;;11.90;;
2992;SDS011;1506;48.932;9.478;2022-12-07T04:46:48;17.30;;;10.80;;
2992;SDS011;1506;48.932;9.478;2022-12-07T04:49:16;14.53;;;9.83;;
2992;SDS011;1506;48.932;9.478;2022-12-07T04:51:44;19.70;;;11.80;;
2992;SDS011;1506;48.932;9.478;2022-12-07T04:54:13;20.37;;;12.03;;
2992;SDS011;1506;48.932;9.478;2022-12-07T04:56:41;19.47;;;12.63;;
2992;SDS011;1506;48.932;9.478;2022-12-07T04:59:09;19.40;;;11.07;;
2992;SDS011;1506;48.932;9.478;2022-12-07T05:01:37;15.53;;;11.47;;
2992;SDS011;1506;48.932;9.478;2022-12-07T05:04:05;13.97;;;10.50;;
2992;SDS011;1506;48.932;9.478;2022-12-07T05:06:32;16.77;;;10.50;;
2992;SDS011;1506;48.932;9.478;2022-12-07T05:09:00;13.73;;;9.80;;
2992;SDS011;1506;48.932;9.478;2022-12-07T05:11:29;22.93;;;11.30;;
2992;SDS011;1506;48.932;9.478;2022-12-07T05:16:38;21.00;;;11.50;;
2992;SDS011;1506;48.932;9.478;2022-12-07T05:19:07;14.13;;;9.40;;
2992;SDS011;1506;48.932;9.478;2022-12-07T05:21:35;15.70;;;10.20;;
2992;SDS011;1506;48.932;9.478;2022-12-07T05:24:03;16.83;;;9.00;;
2992;SDS011;1506;48.932;9.478;2022-12-07T05:26:31;13.40;;;9.77;;
2992;SDS011;1506;48.932;9.478;2022-12-07T05:29:00;15.87;;;9.40;;
2992;SDS011;1506;48.932;9.478;2022-12-07T05:31:28;16.80;;;10.87;;
2992;SDS011;1506;48.932;9.478;2022-12-07T05:33:56;13.60;;;8.73;;
2992;SDS011;1506;48.932;9.478;2022-12-07T05:36:23;11.87;;;10.03;;
2992;SDS011;1506;48.932;9.478;2022-12-07T05:38:50;14.50;;;10.50;;
2992;SDS011;1506;48.932;9.478;2022-12-07T05:41:18;14.83;;;10.27;;
2992;SDS011;1506;48.932;9.478;2022-12-07T05:44:05;12.17;;;8.03;;
2992;SDS011;1506;48.932;9.478;2022-12-07T05:46:32;9.80;;;8.80;;
2992;SDS011;1506;48.932;9.478;2022-12-07T05:49:00;11.20;;;9.30;;
2992;SDS011;1506;48.932;9.478;2022-12-07T05:51:28;15.73;;;10.50;;
2992;SDS011;1506;48.932;9.478;2022-12-07T05:53:55;10.73;;;8.53;;
2992;SDS011;1506;48.932;9.478;2022-12-07T05:56:23;14.47;;;9.80;;
2992;SDS011;1506;48.932;9.478;2022-12-07T05:58:50;11.97;;;10.23;;
2992;SDS011;1506;48.932;9.478;2022-12-07T06:01:36;19.87;;;12.77;;
2992;SDS011;1506;48.932;9.478;2022-12-07T06:04:03;23.43;;;13.57;;
2992;SDS011;1506;48.932;9.478;2022-12-07T06:06:31;16.90;;;11.07;;
2992;SDS011;1506;48.932;9.478;2022-12-07T06:08:58;23.47;;;11.77;;
2992;SDS011;1506;48.932;9.478;2022-12-07T06:11:25;21.60;;;13.43;;
2992;SDS011;1506;48.932;9.478;2022-12-07T06:14:11;18.87;;;11.87;;
2992;SDS011;1506;48.932;9.478;2022-12-07T06:16:39;21.17;;;12.90;;
2992;SDS011;1506;48.932;9.478;2022-12-07T06:19:07;23.83;;;12.10;;
2992;SDS011;1506;48.932;9.478;2022-12-07T06:21:34;26.93;;;13.30;;
2992;SDS011;1506;48.932;9.478;2022-12-07T06:24:01;29.40;;;13.37;;
2992;SDS011;1506;48.932;9.478;2022-12-07T06:26:29;27.93;;;12.60;;
2992;SDS011;1506;48.932;9.478;2022-12-07T06:28:56;19.67;;;12.27;;
2992;SDS011;1506;48.932;9.478;2022-12-07T06:31:24;33.50;;;13.37;;
2992;SDS011;1506;48.932;9.478;2022-12-07T06:33:56;21.93;;;11.93;;
2992;SDS011;1506;48.932;9.478;2022-12-07T06:36:33;21.67;;;12.10;;
2992;SDS011;1506;48.932;9.478;2022-12-07T06:39:01;24.33;;;12.10;;
2992;SDS011;1506;48.932;9.478;2022-12-07T06:41:28;20.40;;;12.60;;
2992;SDS011;1506;48.932;9.478;2022-12-07T06:43:56;19.77;;;11.10;;
2992;SDS011;1506;48.932;9.478;2022-12-07T06:46:23;35.60;;;11.87;;
2992;SDS011;1506;48.932;9.478;2022-12-07T06:48:51;29.17;;;12.97;;
2992;SDS011;1506;48.932;9.478;2022-12-07T06:51:18;27.77;;;13.53;;
2992;SDS011;1506;48.932;9.478;2022-12-07T06:53:46;28.60;;;13.17;;
2992;SDS011;1506;48.932;9.478;2022-12-07T06:56:13;28.27;;;14.47;;
2992;SDS011;1506;48.932;9.478;2022-12-07T06:58:41;25.93;;;14.63;;
2992;SDS011;1506;48.932;9.478;2022-12-07T07:01:09;28.40;;;14.03;;
2992;SDS011;1506;48.932;9.478;2022-12-07T07:03:41;24.03;;;13.83;;
2992;SDS011;1506;48.932;9.478;2022-12-07T07:06:09;28.20;;;14.97;;
2992;SDS011;1506;48.932;9.478;2022-12-07T07:08:37;21.33;;;13.47;;
2992;SDS011;1506;48.932;9.478;2022-12-07T07:11:05;27.90;;;13.97;;
2992;SDS011;1506;48.932;9.478;2022-12-07T07:13:33;31.97;;;14.60;;
2992;SDS011;1506;48.932;9.478;2022-12-07T07:16:00;26.47;;;15.27;;
2992;SDS011;1506;48.932;9.478;2022-12-07T07:18:28;32.83;;;15.70;;
2992;SDS011;1506;48.932;9.478;2022-12-07T07:20:55;38.37;;;15.93;;
2992;SDS011;1506;48.932;9.478;2022-12-07T07:23:23;24.70;;;14.47;;
2992;SDS011;1506;48.932;9.478;2022-12-07T07:25:50;42.50;;;20.20;;
2992;SDS011;1506;48.932;9.478;2022-12-07T07:28:17;47.00;;;19.23;;
2992;SDS011;1506;48.932;9.478;2022-12-07T07:30:44;36.67;;;17.57;;
2992;SDS011;1506;48.932;9.478;2022-12-07T07:33:11;39.43;;;19.10;;
2992;SDS011;1506;48.932;9.478;2022-12-07T07:35:39;45.03;;;19.07;;
2992;SDS011;1506;48.932;9.478;2022-12-07T07:38:06;34.53;;;17.17;;
2992;SDS011;1506;48.932;9.478;2022-12-07T07:40:34;33.90;;;16.83;;
2992;SDS011;1506;48.932;9.478;2022-12-07T07:43:02;27.57;;;14.27;;
2992;SDS011;1506;48.932;9.478;2022-12-07T07:45:29;23.90;;;16.13;;
2992;SDS011;1506;48.932;9.478;2022-12-07T07:47:56;23.53;;;14.03;;
2992;SDS011;1506;48.932;9.478;2022-12-07T07:50:23;34.40;;;16.17;;
2992;SDS011;1506;48.932;9.478;2022-12-07T07:52:50;22.53;;;13.97;;
2992;SDS011;1506;48.932;9.478;2022-12-07T07:55:17;19.53;;;12.73;;
2992;SDS011;1506;48.932;9.478;2022-12-07T07:57:44;37.70;;;18.67;;
2992;SDS011;1506;48.932;9.478;2022-12-07T08:00:20;117.93;;;46.47;;
2992;SDS011;1506;48.932;9.478;2022-12-07T08:02:47;58.30;;;26.00;;
2992;SDS011;1506;48.932;9.478;2022-12-07T08:05:14;24.00;;;15.60;;
2992;SDS011;1506;48.932;9.478;2022-12-07T08:07:42;26.67;;;16.00;;
2992;SDS011;1506;48.932;9.478;2022-12-07T08:10:10;25.17;;;14.07;;
2992;SDS011;1506;48.932;9.478;2022-12-07T08:12:39;26.40;;;13.90;;
2992;SDS011;1506;48.932;9.478;2022-12-07T08:15:28;22.17;;;13.47;;
2992;SDS011;1506;48.932;9.478;2022-12-07T08:17:57;35.77;;;14.73;;
2992;SDS011;1506;48.932;9.478;2022-12-07T08:20:25;32.53;;;13.83;;
2992;SDS011;1506;48.932;9.478;2022-12-07T08:22:52;25.10;;;13.73;;
2992;SDS011;1506;48.932;9.478;2022-12-07T08:25:20;20.47;;;15.30;;
2992;SDS011;1506;48.932;9.478;2022-12-07T08:27:51;20.30;;;13.20;;
2992;SDS011;1506;48.932;9.478;2022-12-07T08:30:19;26.47;;;13.60;;
2992;SDS011;1506;48.932;9.478;2022-12-07T08:32:46;22.67;;;13.80;;
2992;SDS011;1506;48.932;9.478;2022-12-07T08:35:15;19.20;;;11.70;;
2992;SDS011;1506;48.932;9.478;2022-12-07T08:37:42;30.63;;;13.53;;
2992;SDS011;1506;48.932;9.478;2022-12-07T08:40:10;26.13;;;14.23;;
2992;SDS011;1506;48.932;9.478;2022-12-07T08:42:48;21.77;;;12.80;;
2992;SDS011;1506;48.932;9.478;2022-12-07T08:45:16;23.80;;;13.07;;
2992;SDS011;1506;48.932;9.478;2022-12-07T08:47:54;27.70;;;15.13;;
2992;SDS011;1506;48.932;9.478;2022-12-07T08:50:24;30.40;;;17.07;;
2992;SDS011;1506;48.932;9.478;2022-12-07T08:52:52;26.53;;;15.43;;
2992;SDS011;1506;48.932;9.478;2022-12-07T08:55:21;24.33;;;15.40;;
2992;SDS011;1506;48.932;9.478;2022-12-07T08:57:49;24.57;;;14.57;;
2992;SDS011;1506;48.932;9.478;2022-12-07T09:00:16;12.27;;;10.87;;
2992;SDS011;1506;48.932;9.478;2022-12-07T09:02:44;19.27;;;11.10;;
2992;SDS011;1506;48.932;9.478;2022-12-07T09:05:12;19.40;;;11.97;;
2992;SDS011;1506;48.932;9.478;2022-12-07T09:07:46;14.27;;;10.33;;
2992;SDS011;1506;48.932;9.478;2022-12-07T09:10:18;14.53;;;10.20;;
2992;SDS011;1506;48.932;9.478;2022-12-07T09:12:45;17.67;;;10.43;;
2992;SDS011;1506;48.932;9.478;2022-12-07T09:15:13;14.67;;;10.77;;
2992;SDS011;1506;48.932;9.478;2022-12-07T09:17:40;18.70;;;10.97;;
2992;SDS011;1506;48.932;9.478;2022-12-07T09:20:08;16.20;;;11.50;;
2992;SDS011;1506;48.932;9.478;2022-12-07T09:22:36;15.83;;;11.47;;
2992;SDS011;1506;48.932;9.478;2022-12-07T09:25:04;13.20;;;9.63;;
2992;SDS011;1506;48.932;9.478;2022-12-07T09:27:31;17.80;;;10.27;;
2992;SDS011;1506;48.932;9.478;2022-12-07T09:29:59;13.73;;;9.00;;
2992;SDS011;1506;48.932;9.478;2022-12-07T09:32:27;15.60;;;9.27;;
2992;SDS011;1506;48.932;9.478;2022-12-07T09:34:54;11.30;;;9.80;;
2992;SDS011;1506;48.932;9.478;2022-12-07T09:37:22;15.63;;;8.63;;
2992;SDS011;1506;48.932;9.478;2022-12-07T09:39:49;31.03;;;10.23;;
2992;SDS011;1506;48.932;9.478;2022-12-07T09:42:27;11.20;;;8.50;;
2992;SDS011;1506;48.932;9.478;2022-12-07T09:44:56;17.23;;;10.43;;
2992;SDS011;1506;48.932;9.478;2022-12-07T09:47:25;15.30;;;9.80;;
2992;SDS011;1506;48.932;9.478;2022-12-07T09:49:53;11.63;;;8.70;;
2992;SDS011;1506;48.932;9.478;2022-12-07T09:52:26;15.03;;;9.07;;
2992;SDS011;1506;48.932;9.478;2022-12-07T09:55:00;11.03;;;8.50;;
2992;SDS011;1506;48.932;9.478;2022-12-07T09:57:29;13.30;;;8.70;;
2992;SDS011;1506;48.932;9.478;2022-12-07T09:59:59;13.67;;;8.17;;
2992;SDS011;1506;48.932;9.478;2022-12-07T10:05:06;10.10;;;8.20;;
2992;SDS011;1506;48.932;9.478;2022-12-07T10:07:37;9.17;;;7.83;;
2992;SDS011;1506;48.932;9.478;2022-12-07T10:10:06;11.20;;;7.97;;
2992;SDS011;1506;48.932;9.478;2022-12-07T10:12:57;14.63;;;8.37;;
2992;SDS011;1506;48.932;9.478;2022-12-07T10:15:49;10.40;;;7.40;;
2992;SDS011;1506;48.932;9.478;2022-12-07T10:24:21;12.43;;;7.87;;
2992;SDS011;1506;48.932;9.478;2022-12-07T10:26:36;9.07;;;6.80;;
2992;SDS011;1506;48.932;9.478;2022-12-07T10:31:45;13.23;;;8.43;;
2992;SDS011;1506;48.932;9.478;2022-12-07T10:34:38;20.63;;;7.80;;
2992;SDS011;1506;48.932;9.478;2022-12-07T10:47:51;9.50;;;7.77;;
2992;SDS011;1506;48.932;9.478;2022-12-07T10:50:59;12.77;;;6.37;;
2992;SDS011;1506;48.932;9.478;2022-12-07T10:53:48;10.17;;;6.57;;
2992;SDS011;1506;48.932;9.478;2022-12-07T11:01:57;6.17;;;5.57;;
2992;SDS011;1506;48.932;9.478;2022-12-07T11:34:51;14.90;;;8.47;;
2992;SDS011;1506;48.932;9.478;2022-12-07T11:37:21;10.37;;;8.00;;
2992;SDS011;1506;48.932;9.478;2022-12-07T11:40:08;7.40;;;5.83;;
2992;SDS011;1506;48.932;9.478;2022-12-07T11:43:32;15.80;;;8.30;;
2992;SDS011;1506;48.932;9.478;2022-12-07T11:45:37;9.63;;;7.50;;
2992;SDS011;1506;48.932;9.478;2022-12-07T11:48:14;9.93;;;8.23;;
2992;SDS011;1506;48.932;9.478;2022-12-07T11:50:47;28.20;;;14.23;;
2992;SDS011;1506;48.932;9.478;2022-12-07T11:53:17;17.20;;;10.93;;
2992;SDS011;1506;48.932;9.478;2022-12-07T11:56:08;12.77;;;9.03;;
2992;SDS011;1506;48.932;9.478;2022-12-07T12:06:40;6.93;;;6.23;;
2992;SDS011;1506;48.932;9.478;2022-12-07T12:20:51;11.47;;;8.30;;
2992;SDS011;1506;48.932;9.478;2022-12-07T12:23:45;9.50;;;7.23;;
2992;SDS011;1506;48.932;9.478;2022-12-07T12:26:23;13.13;;;8.30;;
2992;SDS011;1506;48.932;9.478;2022-12-07T12:33:55;8.33;;;7.20;;
2992;SDS011;1506;48.932;9.478;2022-12-07T12:36:25;9.97;;;7.93;;
2992;SDS011;1506;48.932;9.478;2022-12-07T12:39:11;19.60;;;10.60;;
2992;SDS011;1506;48.932;9.478;2022-12-07T12:46:50;15.67;;;9.37;;
2992;SDS011;1506;48.932;9.478;2022-12-07T12:54:35;13.90;;;8.80;;
2992;SDS011;1506;48.932;9.478;2022-12-07T13:15:42;16.33;;;9.80;;
2992;SDS011;1506;48.932;9.478;2022-12-07T13:23:39;13.60;;;8.90;;
2992;SDS011;1506;48.932;9.478;2022-12-07T13:26:38;17.10;;;9.17;;
2992;SDS011;1506;48.932;9.478;2022-12-07T13:31:43;15.83;;;8.80;;
2992;SDS011;1506;48.932;9.478;2022-12-07T13:34:34;16.47;;;10.00;;
2992;SDS011;1506;48.932;9.478;2022-12-07T13:39:55;18.43;;;9.60;;
2992;SDS011;1506;48.932;9.478;2022-12-07T13:44:55;19.50;;;9.23;;
2992;SDS011;1506;48.932;9.478;2022-12-07T13:50:28;12.23;;;9.57;;
2992;SDS011;1506;48.932;9.478;2022-12-07T13:52:58;12.40;;;9.57;;
2992;SDS011;1506;48.932;9.478;2022-12-07T13:55:27;14.60;;;9.30;;
2992;SDS011;1506;48.932;9.478;2022-12-07T13:57:55;22.47;;;9.23;;
2992;SDS011;1506;48.932;9.478;2022-12-07T14:00:24;11.93;;;8.50;;
2992;SDS011;1506;48.932;9.478;2022-12-07T14:02:57;17.27;;;11.40;;
2992;SDS011;1506;48.932;9.478;2022-12-07T14:05:33;39.73;;;15.30;;
2992;SDS011;1506;48.932;9.478;2022-12-07T14:08:03;18.77;;;10.53;;
2992;SDS011;1506;48.932;9.478;2022-12-07T14:10:41;11.20;;;9.50;;
2992;SDS011;1506;48.932;9.478;2022-12-07T14:16:01;20.67;;;10.90;;
2992;SDS011;1506;48.932;9.478;2022-12-07T14:18:37;19.87;;;11.90;;
2992;SDS011;1506;48.932;9.478;2022-12-07T14:23:37;19.90;;;12.10;;
2992;SDS011;1506;48.932;9.478;2022-12-07T14:26:15;16.67;;;10.63;;
2992;SDS011;1506;48.932;9.478;2022-12-07T14:28:46;17.57;;;10.50;;
2992;SDS011;1506;48.932;9.478;2022-12-07T14:31:18;25.87;;;11.17;;
2992;SDS011;1506;48.932;9.478;2022-12-07T14:33:58;16.00;;;9.53;;
2992;SDS011;1506;48.932;9.478;2022-12-07T14:36:26;27.03;;;9.97;;
2992;SDS011;1506;48.932;9.478;2022-12-07T14:38:53;24.00;;;11.30;;
2992;SDS011;1506;48.932;9.478;2022-12-07T14:41:24;20.40;;;10.80;;
2992;SDS011;1506;48.932;9.478;2022-12-07T14:44:11;17.70;;;9.63;;
2992;SDS011;1506;48.932;9.478;2022-12-07T14:46:58;16.07;;;11.00;;
2992;SDS011;1506;48.932;9.478;2022-12-07T14:49:45;13.10;;;9.77;;
2992;SDS011;1506;48.932;9.478;2022-12-07T14:52:15;15.53;;;8.60;;
2992;SDS011;1506;48.932;9.478;2022-12-07T14:55:27;20.53;;;10.77;;
2992;SDS011;1506;48.932;9.478;2022-12-07T14:57:56;14.90;;;10.30;;
2992;SDS011;1506;48.932;9.478;2022-12-07T15:00:25;48.40;;;18.57;;
2992;SDS011;1506;48.932;9.478;2022-12-07T15:02:54;49.40;;;20.43;;
2992;SDS011;1506;48.932;9.478;2022-12-07T15:05:21;51.93;;;17.03;;
2992;SDS011;1506;48.932;9.478;2022-12-07T15:07:49;40.30;;;17.23;;
2992;SDS011;1506;48.932;9.478;2022-12-07T15:10:19;48.20;;;14.57;;
2992;SDS011;1506;48.932;9.478;2022-12-07T15:12:50;38.23;;;14.60;;
2992;SDS011;1506;48.932;9.478;2022-12-07T15:15:17;25.07;;;13.80;;
2992;SDS011;1506;48.932;9.478;2022-12-07T15:17:45;15.20;;;10.20;;
2992;SDS011;1506;48.932;9.478;2022-12-07T15:20:13;21.20;;;10.93;;
2992;SDS011;1506;48.932;9.478;2022-12-07T15:22:42;27.57;;;11.80;;
2992;SDS011;1506;48.932;9.478;2022-12-07T15:25:12;19.97;;;10.80;;
2992;SDS011;1506;48.932;9.478;2022-12-07T15:27:40;17.20;;;11.73;;
2992;SDS011;1506;48.932;9.478;2022-12-07T15:30:07;23.80;;;12.50;;
2992;SDS011;1506;48.932;9.478;2022-12-07T15:32:35;23.83;;;12.23;;
2992;SDS011;1506;48.932;9.478;2022-12-07T15:35:02;18.20;;;11.87;;
2992;SDS011;1506;48.932;9.478;2022-12-07T15:37:31;18.37;;;11.90;;
2992;SDS011;1506;48.932;9.478;2022-12-07T15:39:58;21.90;;;11.17;;
2992;SDS011;1506;48.932;9.478;2022-12-07T15:42:33;18.80;;;12.07;;
2992;SDS011;1506;48.932;9.478;2022-12-07T15:45:01;30.33;;;15.00;;
2992;SDS011;1506;48.932;9.478;2022-12-07T15:47:41;36.07;;;20.53;;
2992;SDS011;1506;48.932;9.478;2022-12-07T15:50:29;24.37;;;14.10;;
2992;SDS011;1506;48.932;9.478;2022-12-07T15:52:56;20.40;;;12.37;;
2992;SDS011;1506;48.932;9.478;2022-12-07T15:55:24;19.80;;;12.87;;
2992;SDS011;1506;48.932;9.478;2022-12-07T15:57:51;23.33;;;11.60;;
2992;SDS011;1506;48.932;9.478;2022-12-07T16:00:18;12.00;;;10.33;;
2992;SDS011;1506;48.932;9.478;2022-12-07T16:02:46;21.23;;;11.10;;
2992;SDS011;1506;48.932;9.478;2022-12-07T16:05:14;14.10;;;10.23;;
2992;SDS011;1506;48.932;9.478;2022-12-07T16:07:41;25.40;;;14.33;;
2992;SDS011;1506;48.932;9.478;2022-12-07T16:10:09;25.87;;;14.00;;
2992;SDS011;1506;48.932;9.478;2022-12-07T16:12:36;19.03;;;12.10;;
2992;SDS011;1506;48.932;9.478;2022-12-07T16:15:04;22.20;;;12.83;;
2992;SDS011;1506;48.932;9.478;2022-12-07T16:17:32;26.20;;;13.67;;
2992;SDS011;1506;48.932;9.478;2022-12-07T16:19:59;26.83;;;15.33;;
2992;SDS011;1506;48.932;9.478;2022-12-07T16:22:26;27.20;;;14.63;;
2992;SDS011;1506;48.932;9.478;2022-12-07T16:24:54;24.30;;;13.33;;
2992;SDS011;1506;48.932;9.478;2022-12-07T16:27:21;25.10;;;14.37;;
2992;SDS011;1506;48.932;9.478;2022-12-07T16:29:48;25.53;;;15.27;;
2992;SDS011;1506;48.932;9.478;2022-12-07T16:32:16;41.63;;;16.60;;
2992;SDS011;1506;48.932;9.478;2022-12-07T16:34:43;30.93;;;15.83;;
2992;SDS011;1506;48.932;9.478;2022-12-07T16:37:10;41.47;;;18.10;;
2992;SDS011;1506;48.932;9.478;2022-12-07T16:39:38;34.63;;;18.03;;
2992;SDS011;1506;48.932;9.478;2022-12-07T16:42:05;29.40;;;15.43;;
2992;SDS011;1506;48.932;9.478;2022-12-07T16:44:33;38.20;;;16.97;;
2992;SDS011;1506;48.932;9.478;2022-12-07T16:47:00;25.27;;;14.80;;
2992;SDS011;1506;48.932;9.478;2022-12-07T16:49:27;27.43;;;15.00;;
2992;SDS011;1506;48.932;9.478;2022-12-07T16:51:55;26.93;;;15.60;;
2992;SDS011;1506;48.932;9.478;2022-12-07T16:54:43;31.40;;;15.73;;
2992;SDS011;1506;48.932;9.478;2022-12-07T16:57:10;30.40;;;14.63;;
2992;SDS011;1506;48.932;9.478;2022-12-07T16:59:46;33.57;;;16.17;;
2992;SDS011;1506;48.932;9.478;2022-12-07T17:02:14;28.20;;;14.63;;
2992;SDS011;1506;48.932;9.478;2022-12-07T17:04:41;33.50;;;16.10;;
2992;SDS011;1506;48.932;9.478;2022-12-07T17:07:09;33.97;;;17.30;;
2992;SDS011;1506;48.932;9.478;2022-12-07T17:09:36;32.60;;;17.07;;
2992;SDS011;1506;48.932;9.478;2022-12-07T17:12:04;27.87;;;14.90;;
2992;SDS011;1506;48.932;9.478;2022-12-07T17:14:32;32.27;;;15.20;;
2992;SDS011;1506;48.932;9.478;2022-12-07T17:17:18;31.27;;;14.03;;
2992;SDS011;1506;48.932;9.478;2022-12-07T17:19:46;34.50;;;17.97;;
2992;SDS011;1506;48.932;9.478;2022-12-07T17:22:13;37.17;;;17.60;;
2992;SDS011;1506;48.932;9.478;2022-12-07T17:24:40;32.07;;;16.77;;
2992;SDS011;1506;48.932;9.478;2022-12-07T17:27:08;40.37;;;17.87;;
2992;SDS011;1506;48.932;9.478;2022-12-07T17:29:35;53.87;;;19.77;;
2992;SDS011;1506;48.932;9.478;2022-12-07T17:32:03;37.87;;;19.80;;
2992;SDS011;1506;48.932;9.478;2022-12-07T17:34:31;43.20;;;17.27;;
2992;SDS011;1506;48.932;9.478;2022-12-07T17:36:59;59.57;;;24.63;;
2992;SDS011;1506;48.932;9.478;2022-12-07T17:39:26;42.80;;;20.40;;
2992;SDS011;1506;48.932;9.478;2022-12-07T17:41:54;40.03;;;19.10;;
2992;SDS011;1506;48.932;9.478;2022-12-07T17:44:39;31.83;;;17.67;;
2992;SDS011;1506;48.932;9.478;2022-12-07T17:47:07;29.00;;;15.33;;
2992;SDS011;1506;48.932;9.478;2022-12-07T17:49:36;30.60;;;15.27;;
2992;SDS011;1506;48.932;9.478;2022-12-07T17:52:03;33.23;;;15.23;;
2992;SDS011;1506;48.932;9.478;2022-12-07T17:54:49;35.90;;;14.20;;
2992;SDS011;1506;48.932;9.478;2022-12-07T17:57:17;31.30;;;12.53;;
2992;SDS011;1506;48.932;9.478;2022-12-07T17:59:44;28.30;;;15.70;;
2992;SDS011;1506;48.932;9.478;2022-12-07T18:02:11;27.47;;;15.60;;
2992;SDS011;1506;48.932;9.478;2022-12-07T18:04:39;25.70;;;13.77;;
2992;SDS011;1506;48.932;9.478;2022-12-07T18:07:09;24.23;;;15.00;;
2992;SDS011;1506;48.932;9.478;2022-12-07T18:09:36;26.90;;;15.03;;
2992;SDS011;1506;48.932;9.478;2022-12-07T18:12:04;25.93;;;15.07;;